createdAt,value
2024-03-10T00:00:25.321Z,102006.02
2024-03-10T00:02:52.709Z,102005.33
2024-03-10T00:05:20.919Z,102003.61
2024-03-10T00:07:47.955Z,102002.91
2024-03-10T00:10:18.693Z,102003.60
2024-03-10T00:12:49.268Z,102004.13
2024-03-10T00:15:17.335Z,102006.73
2024-03-10T00:17:44.907Z,102004.48
2024-03-10T00:20:13.030Z,102005.69
2024-03-10T00:22:44.667Z,102006.20
2024-03-10T00:25:13.974Z,102005.52
2024-03-10T00:27:41.847Z,102003.92
2024-03-10T00:30:10.224Z,102000.45
2024-03-10T00:32:37.965Z,101999.41
2024-03-10T00:35:06.538Z,101999.40
2024-03-10T00:37:33.816Z,101999.58
2024-03-10T00:40:00.772Z,101995.08
2024-03-10T00:42:28.437Z,101994.03
2024-03-10T00:44:55.265Z,101993.16
2024-03-10T00:47:22.198Z,101991.61
2024-03-10T00:49:50.452Z,101993.34
2024-03-10T00:52:17.666Z,101992.11
2024-03-10T00:54:44.582Z,101992.82
2024-03-10T00:57:11.439Z,101991.08
2024-03-10T00:59:38.472Z,101988.48
2024-03-10T01:02:06.564Z,101986.21
2024-03-10T01:04:34.112Z,101988.64
2024-03-10T01:07:01.093Z,101984.33
2024-03-10T01:09:30.147Z,101986.58
2024-03-10T01:11:57.329Z,101984.14
2024-03-10T01:14:24.501Z,101980.85
2024-03-10T01:16:51.737Z,101980.68
2024-03-10T01:19:18.749Z,101979.98
2024-03-10T01:21:48.545Z,101978.41
2024-03-10T01:24:15.487Z,101982.06
2024-03-10T01:26:42.439Z,101984.65
2024-03-10T01:29:09.378Z,101983.09
2024-03-10T01:31:36.531Z,101987.94
2024-03-10T01:34:03.476Z,101988.46
2024-03-10T01:36:31.653Z,101987.07
2024-03-10T01:38:58.597Z,101989.48
2024-03-10T01:41:26.477Z,101987.75
2024-03-10T01:43:54.086Z,101988.61
2024-03-10T01:46:24.957Z,101993.64
2024-03-10T01:48:52.110Z,101997.97
2024-03-10T01:51:19.161Z,101998.14
2024-03-10T01:53:46.412Z,101995.89
2024-03-10T01:56:14.678Z,101994.65
2024-03-10T01:58:45.259Z,101996.19
2024-03-10T02:01:14.551Z,101988.55
2024-03-10T02:03:43.651Z,101991.29
2024-03-10T02:06:10.718Z,101989.88
2024-03-10T02:08:38.521Z,101983.64
2024-03-10T02:11:07.318Z,101982.43
2024-03-10T02:13:34.256Z,101978.98
2024-03-10T02:16:03.500Z,101978.46
2024-03-10T02:18:31.432Z,101976.40
2024-03-10T02:20:58.865Z,101976.05
2024-03-10T02:23:33.525Z,101981.61
2024-03-10T02:26:00.581Z,101980.04
2024-03-10T02:28:47.058Z,101977.98
2024-03-10T02:31:32.646Z,101979.89
2024-03-10T02:34:18.306Z,101979.38
2024-03-10T02:37:04.000Z,101979.02
2024-03-10T02:39:49.582Z,101978.48
2024-03-10T02:42:35.070Z,101979.36
2024-03-10T02:45:20.744Z,101977.62
2024-03-10T02:47:47.734Z,101979.01
2024-03-10T02:50:14.922Z,101977.60
2024-03-10T02:52:42.083Z,101971.36
2024-03-10T02:55:12.616Z,101968.77
2024-03-10T02:57:39.571Z,101970.14
2024-03-10T03:00:13.416Z,101968.77
2024-03-10T03:02:40.418Z,101968.58
2024-03-10T03:05:08.296Z,101967.20
2024-03-10T03:07:35.152Z,101966.99
2024-03-10T03:10:02.180Z,101969.04
2024-03-10T03:12:29.435Z,101961.77
2024-03-10T03:14:56.230Z,101958.65
2024-03-10T03:17:25.072Z,101961.76
2024-03-10T03:19:52.135Z,101965.36
2024-03-10T03:22:19.039Z,101968.32
2024-03-10T03:24:45.871Z,101963.14
2024-03-10T03:27:12.651Z,101966.42
2024-03-10T03:29:39.683Z,101964.84
2024-03-10T03:32:06.635Z,101964.44
2024-03-10T03:34:34.468Z,101961.09
2024-03-10T03:37:01.469Z,101959.84
2024-03-10T03:39:28.632Z,101962.41
2024-03-10T03:41:55.631Z,101962.23
2024-03-10T03:44:22.780Z,101960.17
2024-03-10T03:46:49.923Z,101959.98
2024-03-10T03:49:16.962Z,101957.73
2024-03-10T03:51:44.639Z,101957.54
2024-03-10T03:54:11.574Z,101955.63
2024-03-10T03:56:38.509Z,101959.92
2024-03-10T03:59:05.637Z,101964.95
2024-03-10T04:01:35.372Z,101966.86
2024-03-10T04:04:02.310Z,101969.45
2024-03-10T04:06:29.567Z,101968.25
2024-03-10T04:08:58.463Z,101967.21
2024-03-10T04:11:26.492Z,101966.20
2024-03-10T04:13:53.834Z,101969.83
2024-03-10T04:16:20.819Z,101977.09
2024-03-10T04:18:50.024Z,101979.88
2024-03-10T04:21:17.890Z,101984.02
2024-03-10T04:23:44.737Z,101980.39
2024-03-10T04:26:11.970Z,101980.41
2024-03-10T04:28:39.441Z,101983.34
2024-03-10T04:31:06.481Z,101986.11
2024-03-10T04:33:34.117Z,101982.30
2024-03-10T04:36:01.703Z,101989.55
2024-03-10T04:38:28.925Z,101995.09
2024-03-10T04:40:56.831Z,101996.29
2024-03-10T04:43:24.072Z,101995.92
2024-03-10T04:45:53.887Z,101996.60
2024-03-10T04:48:21.399Z,102003.52
2024-03-10T04:50:48.896Z,102003.34
2024-03-10T04:53:16.321Z,102007.63
2024-03-10T04:55:44.938Z,102013.51
2024-03-10T04:58:11.998Z,102012.48
2024-03-10T05:00:40.690Z,102014.53
2024-03-10T05:03:07.609Z,102016.24
2024-03-10T05:05:34.810Z,102017.80
2024-03-10T05:08:02.168Z,102017.63
2024-03-10T05:10:29.575Z,102017.14
2024-03-10T05:12:57.157Z,102021.65
2024-03-10T05:15:24.088Z,102023.38
2024-03-10T05:17:51.187Z,102026.84
2024-03-10T05:20:19.257Z,102031.71
2024-03-10T05:22:46.831Z,102032.92
2024-03-10T05:25:14.004Z,102036.25
2024-03-10T05:27:44.337Z,102032.98
2024-03-10T05:30:11.896Z,102037.32
2024-03-10T05:32:38.850Z,102039.25
2024-03-10T05:35:10.296Z,102035.29
2024-03-10T05:37:37.468Z,102036.17
2024-03-10T05:40:07.101Z,102036.20
2024-03-10T05:42:34.102Z,102038.11
2024-03-10T05:45:03.521Z,102039.87
2024-03-10T05:47:30.912Z,102038.69
2024-03-10T05:49:58.009Z,102041.32
2024-03-10T05:52:25.140Z,102044.80
2024-03-10T05:54:52.493Z,102052.45
2024-03-10T05:57:19.336Z,102060.27
2024-03-10T05:59:46.308Z,102061.33
2024-03-10T06:02:17.263Z,102064.48
2024-03-10T06:04:45.674Z,102067.95
2024-03-10T06:07:12.760Z,102075.10
2024-03-10T06:09:39.842Z,102081.71
2024-03-10T06:12:10.569Z,102085.20
2024-03-10T06:14:38.746Z,102089.03
2024-03-10T06:17:06.542Z,102084.89
2024-03-10T06:19:52.481Z,102084.04
2024-03-10T06:22:38.241Z,102080.93
2024-03-10T06:25:25.983Z,102084.08
2024-03-10T06:27:52.913Z,102087.05
2024-03-10T06:30:20.697Z,102089.66
2024-03-10T06:32:50.227Z,102085.69
2024-03-10T06:35:17.677Z,102088.98
2024-03-10T06:37:45.504Z,102086.58
2024-03-10T06:40:13.072Z,102087.96
2024-03-10T06:42:42.128Z,102084.86
2024-03-10T06:45:10.659Z,102083.31
2024-03-10T06:47:39.809Z,102084.73
2024-03-10T06:50:07.751Z,102085.80
2024-03-10T06:52:34.748Z,102087.20
2024-03-10T06:55:01.601Z,102088.06
2024-03-10T06:57:31.093Z,102085.27
2024-03-10T06:59:59.482Z,102084.59
2024-03-10T07:02:27.673Z,102082.33
2024-03-10T07:04:56.775Z,102080.38
2024-03-10T07:07:25.120Z,102082.80
2024-03-10T07:09:52.281Z,102081.58
2024-03-10T07:12:19.223Z,102084.85
2024-03-10T07:14:49.001Z,102082.21
2024-03-10T07:17:16.774Z,102088.25
2024-03-10T07:19:43.876Z,102085.79
2024-03-10T07:22:10.997Z,102083.66
2024-03-10T07:24:38.443Z,102081.52
2024-03-10T07:27:06.565Z,102079.95
2024-03-10T07:29:33.840Z,102079.04
2024-03-10T07:32:01.603Z,102078.30
2024-03-10T07:34:29.506Z,102078.61
2024-03-10T07:36:56.356Z,102072.45
2024-03-10T07:39:23.676Z,102066.48
2024-03-10T07:41:50.624Z,102060.71
2024-03-10T07:44:18.084Z,102061.88
2024-03-10T07:46:45.267Z,102057.49
2024-03-10T07:49:12.185Z,102058.48
2024-03-10T07:51:39.133Z,102055.65
2024-03-10T07:54:06.273Z,102055.60
2024-03-10T07:56:34.280Z,102053.45
2024-03-10T07:59:01.490Z,102054.98
2024-03-10T08:01:29.025Z,102059.64
2024-03-10T08:03:56.618Z,102059.23
2024-03-10T08:06:23.618Z,102055.19
2024-03-10T08:08:52.876Z,102054.59
2024-03-10T08:11:22.836Z,102054.52
2024-03-10T08:13:50.178Z,102058.13
2024-03-10T08:16:18.402Z,102065.05
2024-03-10T08:18:47.343Z,102066.21
2024-03-10T08:21:15.789Z,102066.36
2024-03-10T08:23:43.336Z,102070.70
2024-03-10T08:26:13.771Z,102068.09
2024-03-10T08:28:41.122Z,102071.58
2024-03-10T08:31:08.069Z,102078.67
2024-03-10T08:33:35.014Z,102070.94
2024-03-10T08:36:02.075Z,102071.77
2024-03-10T08:38:29.905Z,102074.41
2024-03-10T08:40:58.536Z,102072.81
2024-03-10T08:43:25.768Z,102069.55
2024-03-10T08:45:52.815Z,102070.67
2024-03-10T08:48:19.973Z,102060.97
2024-03-10T08:50:47.721Z,102061.23
2024-03-10T08:53:15.103Z,102053.50
2024-03-10T08:55:42.501Z,102057.27
2024-03-10T08:58:09.685Z,102050.27
2024-03-10T09:00:39.488Z,102048.34
2024-03-10T09:03:06.535Z,102046.39
2024-03-10T09:05:33.557Z,102046.91
2024-03-10T09:08:00.645Z,102042.01
2024-03-10T09:10:35.688Z,102045.14
2024-03-10T09:13:11.425Z,102038.97
2024-03-10T09:15:38.784Z,102040.85
2024-03-10T09:18:06.759Z,102042.35
2024-03-10T09:20:34.178Z,102042.55
2024-03-10T09:23:02.084Z,102037.92
2024-03-10T09:25:31.146Z,102037.17
2024-03-10T09:27:58.312Z,102036.22
2024-03-10T09:30:25.974Z,102031.27
2024-03-10T09:32:55.237Z,102031.33
2024-03-10T09:35:24.801Z,102032.80
2024-03-10T09:37:52.255Z,102029.60
2024-03-10T09:40:19.818Z,102027.58
2024-03-10T09:42:48.269Z,102032.21
2024-03-10T09:45:20.660Z,102030.77
2024-03-10T09:47:50.962Z,102032.44
2024-03-10T09:50:24.782Z,102029.59
2024-03-10T09:52:55.981Z,102031.33
2024-03-10T09:55:22.948Z,102027.93
2024-03-10T09:57:57.392Z,102030.66
2024-03-10T10:00:25.882Z,102029.34
2024-03-10T10:02:59.551Z,102026.66
2024-03-10T10:05:30.738Z,102028.52
2024-03-10T10:07:58.082Z,102027.25
2024-03-10T10:10:27.136Z,102031.21
2024-03-10T10:12:58.074Z,102027.66
2024-03-10T10:15:27.075Z,102025.19
2024-03-10T10:17:57.910Z,102019.42
2024-03-10T10:20:26.457Z,102015.24
2024-03-10T10:22:54.392Z,102016.52
2024-03-10T10:25:23.046Z,102015.33
2024-03-10T10:27:51.464Z,102013.95
2024-03-10T10:30:20.352Z,102008.71
2024-03-10T10:32:48.061Z,102005.93
2024-03-10T10:35:16.913Z,102005.05
2024-03-10T10:37:47.697Z,102003.13
2024-03-10T10:40:14.871Z,101998.54
2024-03-10T10:42:53.721Z,101997.27
2024-03-10T10:45:28.193Z,101992.84
2024-03-10T10:47:55.142Z,101991.76
2024-03-10T10:50:32.352Z,101986.12
2024-03-10T10:53:00.318Z,101979.97
2024-03-10T10:55:28.432Z,101977.46
2024-03-10T10:58:12.530Z,101974.95
2024-03-10T11:00:43.586Z,101968.45
2024-03-10T11:03:15.582Z,101966.31
2024-03-10T11:06:15.940Z,101968.48
2024-03-10T11:08:49.123Z,101962.23
2024-03-10T11:11:48.263Z,101959.73
2024-03-10T11:14:23.131Z,101959.75
2024-03-10T11:16:50.498Z,101956.79
2024-03-10T11:19:28.109Z,101952.80
2024-03-10T11:21:56.083Z,101948.77
2024-03-10T11:24:26.733Z,101942.92
2024-03-10T11:27:19.361Z,101936.69
2024-03-10T11:29:46.707Z,101936.23
2024-03-10T11:32:35.457Z,101932.44
2024-03-10T11:35:07.710Z,101934.03
2024-03-10T11:37:37.860Z,101936.89
2024-03-10T11:40:06.238Z,101936.44
2024-03-10T11:42:33.697Z,101934.42
2024-03-10T11:45:03.498Z,101929.27
2024-03-10T11:47:32.849Z,101927.25
2024-03-10T11:50:05.265Z,101924.05
2024-03-10T11:52:32.832Z,101925.70
2024-03-10T11:55:00.137Z,101924.95
2024-03-10T11:57:27.452Z,101924.54
2024-03-10T11:59:55.727Z,101929.02
2024-03-10T12:02:23.446Z,101929.98
2024-03-10T12:04:50.746Z,101927.77
2024-03-10T12:07:17.895Z,101925.56
2024-03-10T12:09:44.932Z,101921.63
2024-03-10T12:12:13.789Z,101925.59
2024-03-10T12:14:44.146Z,101922.88
2024-03-10T12:17:14.373Z,101920.91
2024-03-10T12:19:44.378Z,101916.17
2024-03-10T12:22:11.940Z,101914.73
2024-03-10T12:24:40.741Z,101915.23
2024-03-10T12:27:08.375Z,101910.11
2024-03-10T12:29:49.150Z,101913.57
2024-03-10T12:32:16.539Z,101917.11
2024-03-10T12:34:44.988Z,101915.54
2024-03-10T12:37:13.362Z,101916.35
2024-03-10T12:39:40.427Z,101923.45
2024-03-10T12:42:07.783Z,101916.55
2024-03-10T12:44:34.818Z,101916.50
2024-03-10T12:47:01.901Z,101915.95
2024-03-10T12:49:29.111Z,101912.92
2024-03-10T12:51:56.277Z,101906.08
2024-03-10T12:54:23.211Z,101909.77
2024-03-10T12:56:50.606Z,101915.77
2024-03-10T12:59:17.768Z,101908.63
2024-03-10T13:01:44.956Z,101905.32
2024-03-10T13:04:12.221Z,101912.06
2024-03-10T13:06:39.796Z,101906.34
2024-03-10T13:09:09.952Z,101908.50
2024-03-10T13:11:37.035Z,101911.50
2024-03-10T13:14:05.435Z,101908.33
2024-03-10T13:16:32.769Z,101908.48
2024-03-10T13:19:01.455Z,101907.98
2024-03-10T13:21:29.552Z,101902.66
2024-03-10T13:23:58.523Z,101900.82
2024-03-10T13:26:25.609Z,101903.82
2024-03-10T13:28:52.874Z,101896.70
2024-03-10T13:31:19.889Z,101898.70
2024-03-10T13:33:47.136Z,101895.39
2024-03-10T13:36:17.789Z,101896.28
2024-03-10T13:38:45.742Z,101898.58
2024-03-10T13:41:13.141Z,101899.48
2024-03-10T13:43:43.804Z,101897.56
2024-03-10T13:46:12.942Z,101897.77
2024-03-10T13:48:40.766Z,101902.89
2024-03-10T13:51:08.525Z,101903.98
2024-03-10T13:53:35.949Z,101902.64
2024-03-10T13:56:04.773Z,101904.63
2024-03-10T13:58:32.227Z,101902.79
2024-03-10T14:00:59.503Z,101905.99
2024-03-10T14:03:26.960Z,101899.77
2024-03-10T14:05:54.268Z,101901.39
2024-03-10T14:08:21.590Z,101898.27
2024-03-10T14:10:49.174Z,101899.17
2024-03-10T14:13:19.237Z,101895.33
2024-03-10T14:15:46.487Z,101891.70
2024-03-10T14:18:13.965Z,101889.98
2024-03-10T14:20:40.988Z,101890.89
2024-03-10T14:23:08.454Z,101891.46
2024-03-10T14:25:35.687Z,101890.52
2024-03-10T14:28:03.338Z,101896.23
2024-03-10T14:30:31.132Z,101893.84
2024-03-10T14:33:01.068Z,101890.20
2024-03-10T14:35:29.737Z,101883.23
2024-03-10T14:37:57.296Z,101882.42
2024-03-10T14:40:24.442Z,101886.52
2024-03-10T14:42:52.976Z,101892.21
2024-03-10T14:45:20.615Z,101897.58
2024-03-10T14:47:50.038Z,101900.41
2024-03-10T14:50:22.355Z,101901.73
2024-03-10T14:52:50.111Z,101901.34
2024-03-10T14:55:17.359Z,101903.18
2024-03-10T14:57:45.196Z,101901.00
2024-03-10T15:00:40.528Z,101897.08
2024-03-10T15:03:08.857Z,101902.07
2024-03-10T15:05:40.420Z,101908.44
2024-03-10T15:08:09.167Z,101902.39
2024-03-10T15:10:37.011Z,101905.42
2024-03-10T15:13:05.962Z,101911.08
2024-03-10T15:15:32.935Z,101919.19
2024-03-10T15:18:00.379Z,101920.54
2024-03-10T15:20:28.001Z,101919.96
2024-03-10T15:22:55.242Z,101920.25
2024-03-10T15:25:23.482Z,101920.86
2024-03-10T15:27:50.439Z,101921.82
2024-03-10T15:30:20.876Z,101917.92
2024-03-10T15:32:49.045Z,101918.39
2024-03-10T15:35:17.322Z,101913.77
2024-03-10T15:37:44.964Z,101922.21
2024-03-10T15:40:13.344Z,101923.52
2024-03-10T15:42:44.183Z,101928.87
2024-03-10T15:45:13.687Z,101933.94
2024-03-10T15:47:41.319Z,101936.11
2024-03-10T15:50:10.427Z,101936.01
2024-03-10T15:52:37.588Z,101935.33
2024-03-10T15:55:06.462Z,101936.73
2024-03-10T15:57:33.484Z,101935.63
2024-03-10T16:00:00.501Z,101936.61
2024-03-10T16:02:27.670Z,101932.01
2024-03-10T16:04:54.958Z,101932.44
2024-03-10T16:07:22.090Z,101933.36
2024-03-10T16:09:51.038Z,101933.25
2024-03-10T16:12:19.523Z,101934.02
2024-03-10T16:14:46.712Z,101938.66
2024-03-10T16:17:15.683Z,101938.89
2024-03-10T16:19:43.396Z,101944.38
2024-03-10T16:22:11.164Z,101949.67
2024-03-10T16:24:40.669Z,101951.44
2024-03-10T16:27:08.021Z,101951.66
2024-03-10T16:29:35.251Z,101951.01
2024-03-10T16:32:02.572Z,101957.66
2024-03-10T16:34:29.875Z,101960.98
2024-03-10T16:36:56.938Z,101967.48
2024-03-10T16:39:23.976Z,101964.69
2024-03-10T16:41:50.925Z,101963.51
2024-03-10T16:44:18.174Z,101962.12
2024-03-10T16:46:45.316Z,101965.73
2024-03-10T16:49:12.363Z,101963.02
2024-03-10T16:51:39.757Z,101965.64
2024-03-10T16:54:06.762Z,101966.02
2024-03-10T16:56:34.057Z,101966.58
2024-03-10T16:59:01.400Z,101967.80
2024-03-10T17:01:30.099Z,101964.31
2024-03-10T17:03:59.052Z,101972.50
2024-03-10T17:06:26.129Z,101975.15
2024-03-10T17:08:53.315Z,101975.50
2024-03-10T17:11:22.918Z,101976.56
2024-03-10T17:13:50.105Z,101973.27
2024-03-10T17:16:17.083Z,101974.15
2024-03-10T17:18:45.151Z,101975.75
2024-03-10T17:21:12.157Z,101971.08
2024-03-10T17:23:40.737Z,101971.60
2024-03-10T17:26:08.042Z,101975.61
2024-03-10T17:28:35.065Z,101972.83
2024-03-10T17:31:02.087Z,101971.98
2024-03-10T17:33:29.432Z,101976.36
2024-03-10T17:35:56.715Z,101975.70
2024-03-10T17:38:23.790Z,101977.80
2024-03-10T17:40:51.716Z,101977.80
2024-03-10T17:43:19.985Z,101985.83
2024-03-10T17:45:47.210Z,101988.13
2024-03-10T17:48:14.205Z,101990.23
2024-03-10T17:50:42.322Z,101999.80
2024-03-10T17:53:10.827Z,102001.23
2024-03-10T17:55:39.219Z,102002.42
2024-03-10T17:58:07.595Z,102001.39
2024-03-10T18:00:35.072Z,101996.84
2024-03-10T18:03:02.914Z,101999.45
2024-03-10T18:05:30.932Z,101998.21
2024-03-10T18:07:58.128Z,102002.39
2024-03-10T18:10:25.509Z,102004.46
2024-03-10T18:12:52.741Z,102005.50
2024-03-10T18:15:21.431Z,102006.88
2024-03-10T18:17:49.334Z,102002.00
2024-03-10T18:20:18.184Z,102006.70
2024-03-10T18:22:45.573Z,102003.93
2024-03-10T18:25:13.299Z,102001.15
2024-03-10T18:27:40.352Z,102001.33
2024-03-10T18:30:12.554Z,102007.45
2024-03-10T18:32:39.956Z,102010.92
2024-03-10T18:35:13.000Z,102013.54
2024-03-10T18:37:40.741Z,102011.80
2024-03-10T18:40:10.396Z,102013.18
2024-03-10T18:42:38.044Z,102007.78
2024-03-10T18:45:08.268Z,102009.55
2024-03-10T18:47:36.707Z,102012.72
2024-03-10T18:50:07.401Z,102014.30
2024-03-10T18:52:36.534Z,102018.29
2024-03-10T18:55:04.544Z,102020.04
2024-03-10T18:57:32.268Z,102023.56
2024-03-10T18:59:59.512Z,102027.95
2024-03-10T19:02:31.603Z,102030.73
2024-03-10T19:04:59.058Z,102032.98
2024-03-10T19:07:26.172Z,102038.02
2024-03-10T19:09:53.334Z,102035.75
2024-03-10T19:12:21.147Z,102036.79
2024-03-10T19:14:48.393Z,102031.21
2024-03-10T19:17:15.634Z,102031.23
2024-03-10T19:19:42.839Z,102032.98
2024-03-10T19:22:09.885Z,102032.27
2024-03-10T19:24:38.267Z,102033.15
2024-03-10T19:27:05.208Z,102034.73
2024-03-10T19:29:32.428Z,102040.31
2024-03-10T19:31:59.634Z,102041.52
2024-03-10T19:34:26.663Z,102045.02
2024-03-10T19:36:54.678Z,102044.83
2024-03-10T19:39:21.762Z,102042.91
2024-03-10T19:41:48.761Z,102043.27
2024-03-10T19:44:15.803Z,102044.67
2024-03-10T19:46:43.836Z,102048.49
2024-03-10T19:49:11.009Z,102050.23
2024-03-10T19:51:38.650Z,102047.29
2024-03-10T19:54:05.726Z,102049.05
2024-03-10T19:56:32.887Z,102053.41
2024-03-10T19:59:00.024Z,102055.16
2024-03-10T20:01:28.555Z,102052.89
2024-03-10T20:03:57.261Z,102051.67
2024-03-10T20:06:25.462Z,102051.50
2024-03-10T20:08:52.600Z,102056.21
2024-03-10T20:11:19.946Z,102055.35
2024-03-10T20:13:48.985Z,102056.56
2024-03-10T20:16:16.491Z,102060.23
2024-03-10T20:18:43.436Z,102062.16
2024-03-10T20:21:12.437Z,102067.23
2024-03-10T20:23:39.615Z,102058.20
2024-03-10T20:26:08.310Z,102056.81
2024-03-10T20:28:35.427Z,102058.06
2024-03-10T20:31:02.682Z,102063.11
2024-03-10T20:33:34.144Z,102062.09
2024-03-10T20:36:02.901Z,102064.89
2024-03-10T20:38:30.405Z,102072.04
2024-03-10T20:40:58.187Z,102074.66
2024-03-10T20:43:25.486Z,102073.60
2024-03-10T20:45:59.182Z,102072.71
2024-03-10T20:48:32.373Z,102070.10
2024-03-10T20:51:00.026Z,102070.80
2024-03-10T20:53:27.557Z,102077.06
2024-03-10T20:55:55.962Z,102082.11
2024-03-10T20:58:23.965Z,102085.95
2024-03-10T21:00:54.689Z,102087.89
2024-03-10T21:03:22.022Z,102084.94
2024-03-10T21:05:49.579Z,102085.28
2024-03-10T21:08:16.890Z,102087.73
2024-03-10T21:10:44.036Z,102082.67
2024-03-10T21:13:11.133Z,102080.76
2024-03-10T21:15:39.002Z,102078.35
2024-03-10T21:18:06.877Z,102083.39
2024-03-10T21:20:35.634Z,102080.79
2024-03-10T21:23:02.551Z,102084.63
2024-03-10T21:25:30.561Z,102086.04
2024-03-10T21:27:57.534Z,102081.86
2024-03-10T21:30:24.349Z,102080.48
2024-03-10T21:32:51.449Z,102077.00
2024-03-10T21:35:21.653Z,102076.30
2024-03-10T21:37:48.566Z,102073.00
2024-03-10T21:40:17.254Z,102072.48
2024-03-10T21:42:44.917Z,102073.02
2024-03-10T21:45:12.782Z,102069.70
2024-03-10T21:47:42.299Z,102069.35
2024-03-10T21:50:11.295Z,102068.11
2024-03-10T21:52:39.445Z,102073.34
2024-03-10T21:55:06.763Z,102074.73
2024-03-10T21:57:35.073Z,102076.14
2024-03-10T22:00:11.750Z,102076.83
2024-03-10T22:02:39.490Z,102076.84
2024-03-10T22:05:07.085Z,102076.66
2024-03-10T22:07:35.457Z,102076.84
2024-03-10T22:10:02.936Z,102081.71
2024-03-10T22:12:30.143Z,102081.55
2024-03-10T22:14:57.315Z,102077.90
2024-03-10T22:17:24.328Z,102074.25
2024-03-10T22:19:51.601Z,102072.69
2024-03-10T22:22:18.443Z,102070.59
2024-03-10T22:24:45.295Z,102069.02
2024-03-10T22:27:12.354Z,102072.34
2024-03-10T22:29:39.476Z,102073.73
2024-03-10T22:32:09.353Z,102073.23
2024-03-10T22:34:36.246Z,102076.20
2024-03-10T22:37:03.593Z,102076.38
2024-03-10T22:39:30.848Z,102076.56
2024-03-10T22:41:58.099Z,102070.98
2024-03-10T22:44:25.068Z,102069.43
2024-03-10T22:46:51.990Z,102068.73
2024-03-10T22:49:18.943Z,102070.29
2024-03-10T22:51:46.289Z,102073.08
2024-03-10T22:54:15.186Z,102074.81
2024-03-10T22:56:42.077Z,102072.90
2024-03-10T22:59:09.008Z,102074.64
2024-03-10T23:01:36.342Z,102074.81
2024-03-10T23:04:04.445Z,102074.48
2024-03-10T23:06:31.641Z,102076.76
2024-03-10T23:08:59.111Z,102081.98
2024-03-10T23:11:26.140Z,102084.93
2024-03-10T23:13:53.192Z,102086.68
2024-03-10T23:16:20.648Z,102089.61
2024-03-10T23:18:50.455Z,102091.45
2024-03-10T23:21:17.397Z,102094.41
2024-03-10T23:23:46.329Z,102097.88
2024-03-10T23:26:13.447Z,102098.71
2024-03-10T23:28:40.602Z,102099.05
2024-03-10T23:31:08.868Z,102099.40
2024-03-10T23:33:36.659Z,102101.70
2024-03-10T23:36:04.084Z,102101.52
2024-03-10T23:38:31.386Z,102107.08
2024-03-10T23:40:58.909Z,102106.02
2024-03-10T23:43:27.428Z,102109.15
2024-03-10T23:45:54.325Z,102112.98
2024-03-10T23:48:22.858Z,102118.56
2024-03-10T23:50:51.216Z,102124.67
2024-03-10T23:53:19.781Z,102128.67
2024-03-10T23:55:56.037Z,102134.58
2024-03-10T23:58:22.972Z,102139.12
